Time;durP1;ratioP1;P1;durP2;ratioP2;P2;SDS_P1;SDS_P2;PMS_P1;PMS_P2;Temp;Humidity;BMP_temperature;BMP_pressure;BME280_temperature;BME280_humidity;BME280_pressure;Samples;Min_cycle;Max_cycle;Signal;HPM_P1;HPM_P2
2022/11/17 15:52:34;;;;;;;15.20;7.67;;;;;;;0.18;85.27;99261.61;1742347;79;22319;-69
2022/11/17 15:55:14;;;;;;;14.00;7.17;;;;;;;0.15;85.36;99266.81;1742933;82;21105;-67
2022/11/17 15:57:43;;;;;;;17.30;8.08;;;;;;;0.16;85.05;99271.19;1726429;82;21696;-68
2022/11/17 16:00:14;;;;;;;14.80;7.42;;;;;;;0.14;85.19;99270.50;1735772;81;21204;-67
2022/11/17 16:02:43;;;;;;;20.17;8.15;;;;;;;0.13;85.18;99275.55;1767584;80;21124;-68
2022/11/17 16:05:12;;;;;;;15.03;8.15;;;;;;;0.11;85.29;99273.52;1753465;81;21126;-67
2022/11/17 16:07:42;;;;;;;16.23;7.67;;;;;;;0.11;85.38;99269.48;1758466;81;22225;-68
2022/11/17 16:10:13;;;;;;;13.85;6.95;;;;;;;0.13;85.38;99270.66;1759709;81;21161;-69
2022/11/17 16:12:54;;;;;;;15.55;7.30;;;;;;;0.13;85.08;99267.47;1776120;80;21173;-70
2022/11/17 16:16:09;;;;;;;13.68;6.70;;;;;;;0.08;85.12;99254.98;1746487;80;21197;-68
2022/11/17 16:18:42;;;;;;;13.83;7.37;;;;;;;0.04;85.06;99268.42;1728821;82;21605;-68
2022/11/17 16:21:12;;;;;;;15.75;6.80;;;;;;;0.04;84.94;99269.77;1735493;81;21170;-70
2022/11/17 16:23:44;;;;;;;14.47;6.62;;;;;;;0.03;84.95;99267.23;1724575;81;21205;-71
2022/11/17 16:26:14;;;;;;;14.33;6.97;;;;;;;-0.01;84.94;99262.63;1772767;78;21148;-71
2022/11/17 16:28:43;;;;;;;15.55;7.58;;;;;;;-0.06;85.17;99272.53;1733982;81;21177;-70
2022/11/17 16:31:21;;;;;;;16.05;7.12;;;;;;;-0.06;85.27;99267.65;1761490;81;21537;-70
2022/11/17 16:33:52;;;;;;;14.68;7.25;;;;;;;-0.02;85.34;99263.64;1761379;81;21177;-70
2022/11/17 16:36:23;;;;;;;16.52;7.50;;;;;;;-0.01;85.35;99266.17;1799600;78;21555;-70
2022/11/17 16:38:57;;;;;;;13.10;6.92;;;;;;;0.01;85.30;99266.55;1796263;80;21125;-67
2022/11/17 16:41:33;;;;;;;10.53;5.53;;;;;;;0.00;85.28;99254.94;1792884;78;21065;-71
2022/11/17 16:44:09;;;;;;;13.68;7.22;;;;;;;-0.02;85.38;99262.30;1792442;78;21145;-70
2022/11/17 16:46:40;;;;;;;12.85;6.97;;;;;;;-0.02;85.30;99252.88;1793580;80;21173;-71
2022/11/17 16:49:11;;;;;;;15.48;7.22;;;;;;;-0.03;85.18;99251.18;1766282;80;21125;-70
2022/11/17 16:51:39;;;;;;;14.53;8.48;;;;;;;-0.03;85.07;99245.30;1823806;78;21145;-70
2022/11/17 16:54:10;;;;;;;16.57;8.75;;;;;;;-0.04;85.29;99234.69;1823384;78;21221;-70
2022/11/17 16:56:39;;;;;;;13.93;7.70;;;;;;;-0.03;85.23;99236.38;1788491;80;21595;-69
2022/11/17 16:59:10;;;;;;;17.00;7.33;;;;;;;-0.01;85.29;99240.59;1814591;77;21119;-70
2022/11/17 17:01:39;;;;;;;18.20;6.87;;;;;;;0.06;85.66;99242.69;1787862;78;21138;-71
2022/11/17 17:04:09;;;;;;;12.68;6.30;;;;;;;0.05;85.51;99235.11;1827831;78;21134;-69
2022/11/17 17:06:42;;;;;;;15.43;6.08;;;;;;;0.02;84.77;99239.47;1825982;78;21542;-70
2022/11/17 17:09:13;;;;;;;13.55;6.70;;;;;;;-0.05;84.51;99227.11;1816936;78;21168;-71
2022/11/17 17:11:45;;;;;;;16.77;7.60;;;;;;;-0.06;84.51;99228.61;1828264;78;21096;-70
2022/11/17 17:14:15;;;;;;;13.90;7.15;;;;;;;-0.04;84.47;99225.26;1825755;78;21153;-71
2022/11/17 17:16:44;;;;;;;20.40;6.50;;;;;;;-0.07;84.24;99229.62;1787811;78;21409;-70
2022/11/17 17:19:14;;;;;;;11.33;5.92;;;;;;;-0.07;84.36;99229.62;1755812;81;21177;-71
2022/11/17 17:21:44;;;;;;;13.62;6.47;;;;;;;-0.07;84.19;99229.11;1760728;80;21600;-70
2022/11/17 17:24:14;;;;;;;13.62;6.90;;;;;;;-0.06;84.34;99234.00;1759904;81;21638;-70
2022/11/17 17:26:43;;;;;;;12.30;6.42;;;;;;;-0.08;83.89;99227.92;1796356;79;21090;-76
2022/11/17 17:29:12;;;;;;;13.83;6.53;;;;;;;-0.12;84.08;99230.09;1798699;79;21169;-70
2022/11/17 17:31:42;;;;;;;14.90;6.87;;;;;;;-0.13;84.03;99239.17;1831368;78;21126;-70
2022/11/17 17:34:12;;;;;;;12.65;6.50;;;;;;;-0.12;84.12;99237.33;1803923;78;21141;-71
2022/11/17 17:36:41;;;;;;;12.88;5.90;;;;;;;-0.12;84.11;99240.02;1788262;78;21114;-72
2022/11/17 17:39:13;;;;;;;12.65;6.10;;;;;;;-0.14;83.93;99242.02;1789059;78;21158;-70
2022/11/17 17:41:44;;;;;;;11.38;5.87;;;;;;;-0.16;83.16;99241.33;1824726;78;21153;-71
2022/11/17 17:44:16;;;;;;;11.25;5.62;;;;;;;-0.24;82.97;99230.52;1828162;78;21159;-70
2022/11/17 17:46:46;;;;;;;15.10;6.40;;;;;;;-0.28;83.32;99236.71;1826289;78;21141;-71
2022/11/17 17:49:17;;;;;;;14.15;7.75;;;;;;;-0.26;83.47;99233.86;1829227;78;21102;-71
2022/11/17 17:51:47;;;;;;;11.63;6.00;;;;;;;-0.23;83.73;99228.16;1830069;78;21564;-70
2022/11/17 17:54:18;;;;;;;15.03;5.90;;;;;;;-0.22;83.68;99229.86;1828464;78;21450;-70
2022/11/17 17:56:47;;;;;;;10.18;5.53;;;;;;;-0.23;83.86;99228.16;1772119;78;21617;-70
2022/11/17 17:59:16;;;;;;;11.22;5.12;;;;;;;-0.20;83.96;99230.54;1777271;80;21131;-71
2022/11/17 18:01:46;;;;;;;11.20;6.17;;;;;;;-0.22;83.59;99230.70;1829396;78;21133;-72
2022/11/17 18:04:16;;;;;;;10.38;6.08;;;;;;;-0.26;83.66;99235.20;1826011;78;21133;-70
2022/11/17 18:06:47;;;;;;;10.13;5.87;;;;;;;-0.24;83.85;99238.59;1828052;78;21514;-71
2022/11/17 18:09:18;;;;;;;10.78;5.60;;;;;;;-0.24;83.93;99234.05;1827252;78;21144;-71
2022/11/17 18:11:49;;;;;;;10.72;5.95;;;;;;;-0.25;83.64;99226.98;1828738;78;21138;-71
2022/11/17 18:14:22;;;;;;;10.82;6.00;;;;;;;-0.25;83.49;99228.82;1827186;78;21569;-71
2022/11/17 18:16:52;;;;;;;9.70;5.45;;;;;;;-0.30;83.36;99232.48;1825993;78;21110;-71
2022/11/17 18:19:21;;;;;;;11.08;5.58;;;;;;;-0.33;83.37;99225.08;1825818;78;21138;-71
2022/11/17 18:21:52;;;;;;;11.10;5.62;;;;;;;-0.36;83.28;99217.81;1816356;78;21102;-71
2022/11/17 18:24:22;;;;;;;11.55;6.05;;;;;;;-0.39;83.15;99223.01;1808638;78;21125;-70
2022/11/17 18:26:51;;;;;;;11.50;5.17;;;;;;;-0.39;83.40;99226.20;1777061;78;21610;-70
2022/11/17 18:29:20;;;;;;;9.95;5.28;;;;;;;-0.39;83.19;99224.86;1793566;80;21369;-73
2022/11/17 18:31:50;;;;;;;10.25;5.65;;;;;;;-0.42;83.30;99223.33;1792140;78;21141;-70
2022/11/17 18:34:22;;;;;;;11.90;6.00;;;;;;;-0.42;83.28;99227.36;1793761;78;21117;-71
2022/11/17 18:36:54;;;;;;;12.35;6.28;;;;;;;-0.43;83.56;99231.05;1785134;78;21153;-69
2022/11/17 18:39:24;;;;;;;11.28;5.62;;;;;;;-0.44;83.64;99230.70;1797780;78;21545;-72
2022/11/17 18:41:53;;;;;;;11.00;5.67;;;;;;;-0.42;83.75;99232.74;1827860;78;21097;-71
2022/11/17 18:44:22;;;;;;;10.53;5.47;;;;;;;-0.43;83.73;99228.36;1770393;78;21137;-73
2022/11/17 18:46:51;;;;;;;12.60;5.87;;;;;;;-0.44;83.84;99225.83;1744942;82;21201;-71
2022/11/17 18:49:20;;;;;;;11.30;5.78;;;;;;;-0.47;83.65;99237.75;1745562;82;21123;-71
2022/11/17 18:51:49;;;;;;;12.40;6.55;;;;;;;-0.46;83.85;99223.80;1745639;81;21130;-70
2022/11/17 18:54:19;;;;;;;13.03;6.08;;;;;;;-0.47;83.84;99230.17;1745787;81;21566;-71
2022/11/17 18:56:49;;;;;;;10.90;6.42;;;;;;;-0.47;83.82;99222.11;1754090;81;21619;-72
2022/11/17 18:59:18;;;;;;;12.63;6.50;;;;;;;-0.47;83.79;99225.64;1826276;78;21082;-72
2022/11/17 19:01:48;;;;;;;8.45;5.50;;;;;;;-0.43;83.78;99231.55;1806215;78;21107;-71
2022/11/17 19:04:18;;;;;;;11.83;5.58;;;;;;;-0.46;83.73;99224.64;1771896;79;21188;-71
2022/11/17 19:06:46;;;;;;;11.15;5.60;;;;;;;-0.46;83.69;99223.30;1764244;80;21133;-71
2022/11/17 19:09:16;;;;;;;12.43;6.05;;;;;;;-0.48;83.76;99217.22;1777904;80;21122;-70
2022/11/17 19:12:04;;;;;;;12.13;6.25;;;;;;;-0.47;83.76;99224.80;1831670;78;21661;-71
2022/11/17 19:14:39;;;;;;;9.35;5.35;;;;;;;-0.47;83.85;99224.80;1831243;78;21189;-73
2022/11/17 19:17:08;;;;;;;11.55;5.95;;;;;;;-0.49;84.06;99214.19;1786532;78;21553;-72
2022/11/17 19:19:39;;;;;;;9.38;5.60;;;;;;;-0.47;84.22;99220.26;1762594;79;21750;-70
2022/11/17 19:22:08;;;;;;;10.00;5.28;;;;;;;-0.49;83.92;99215.53;1752678;81;21114;-70
2022/11/17 19:24:39;;;;;;;11.65;5.97;;;;;;;-0.49;84.04;99205.27;1711634;81;21146;-71
2022/11/17 19:27:09;;;;;;;10.18;5.87;;;;;;;-0.49;84.14;99205.27;1764835;79;21173;-71
2022/11/17 19:29:40;;;;;;;12.10;5.22;;;;;;;-0.48;84.28;99211.84;1755358;79;21139;-73
2022/11/17 19:32:09;;;;;;;8.00;5.45;;;;;;;-0.48;84.35;99206.97;1743543;81;21193;-71
2022/11/17 19:34:40;;;;;;;13.05;5.80;;;;;;;-0.50;84.21;99208.47;1743055;80;21565;-71
2022/11/17 19:37:09;;;;;;;22.52;5.72;;;;;;;-0.50;84.28;99204.43;1753364;80;21562;-73
2022/11/17 19:39:39;;;;;;;10.98;5.45;;;;;;;-0.51;84.21;99208.63;1747811;80;21587;-71
2022/11/17 19:42:08;;;;;;;12.10;5.62;;;;;;;-0.51;84.32;99203.24;1751817;79;21162;-71
2022/11/17 19:44:37;;;;;;;11.10;5.62;;;;;;;-0.53;84.14;99208.78;1758049;79;21620;-71
2022/11/17 19:47:05;;;;;;;15.45;5.92;;;;;;;-0.56;84.13;99194.80;1760507;79;21533;-71
2022/11/17 19:49:34;;;;;;;11.35;5.45;;;;;;;-0.57;84.13;99197.98;1741144;80;21159;-71
2022/11/17 19:52:06;;;;;;;10.78;5.97;;;;;;;-0.56;84.21;99199.67;1742723;80;21106;-71
2022/11/17 19:54:36;;;;;;;11.22;6.00;;;;;;;-0.56;84.33;99198.83;1748137;80;21158;-72
2022/11/17 19:57:05;;;;;;;10.10;5.45;;;;;;;-0.53;84.54;99195.33;1737261;79;21320;-71
2022/11/17 19:59:34;;;;;;;13.03;5.60;;;;;;;-0.50;84.72;99205.77;1744802;81;21166;-71
2022/11/17 20:02:03;;;;;;;10.53;5.62;;;;;;;-0.46;84.79;99212.53;1757536;80;21095;-70
2022/11/17 20:04:32;;;;;;;9.98;5.30;;;;;;;-0.44;84.62;99198.42;1750230;82;21130;-71
2022/11/17 20:07:00;;;;;;;10.72;5.08;;;;;;;-0.48;84.61;99197.55;1753659;82;21137;-70
2022/11/17 20:09:30;;;;;;;9.75;5.47;;;;;;;-0.49;84.59;99192.67;1753498;82;21102;-75
2022/11/17 20:12:00;;;;;;;11.73;5.80;;;;;;;-0.48;84.76;99184.09;1774536;79;21112;-71
2022/11/17 20:14:32;;;;;;;12.60;5.53;;;;;;;-0.46;84.79;99182.94;1765473;80;21127;-72
2022/11/17 20:17:03;;;;;;;10.80;4.80;;;;;;;-0.45;84.87;99187.81;1709711;83;21112;-73
2022/11/17 20:19:32;;;;;;;9.48;5.28;;;;;;;-0.43;84.94;99179.94;1730707;82;21174;-71
2022/11/17 20:22:01;;;;;;;9.75;5.67;;;;;;;-0.44;84.76;99177.40;1716995;82;21168;-73
2022/11/17 20:24:32;;;;;;;12.23;5.37;;;;;;;-0.45;84.53;99180.59;1677970;83;21145;-71
2022/11/17 20:27:01;;;;;;;10.23;5.25;;;;;;;-0.48;84.42;99168.80;1716791;82;21173;-70
2022/11/17 20:29:31;;;;;;;8.73;4.80;;;;;;;-0.48;84.51;99170.14;1686390;84;21184;-72
2022/11/17 20:32:00;;;;;;;11.85;5.62;;;;;;;-0.47;84.43;99167.80;1666522;85;21590;-72
2022/11/17 20:34:29;;;;;;;8.85;5.12;;;;;;;-0.46;84.51;99168.14;1684266;84;21238;-70
2022/11/17 20:36:58;;;;;;;8.30;4.95;;;;;;;-0.46;84.45;99164.11;1673764;84;22005;-72
2022/11/17 20:39:27;;;;;;;16.42;5.75;;;;;;;-0.46;84.35;99170.83;1641934;84;21699;-74
2022/11/17 20:41:56;;;;;;;9.18;5.45;;;;;;;-0.46;84.44;99164.11;1691234;81;21138;-71
2022/11/17 20:44:25;;;;;;;10.60;4.87;;;;;;;-0.47;84.29;99161.07;1747000;80;21182;-71
2022/11/17 20:46:55;;;;;;;9.90;5.35;;;;;;;-0.48;84.26;99162.08;1707945;83;21115;-71
2022/11/17 20:49:26;;;;;;;8.65;5.00;;;;;;;-0.48;84.09;99156.69;1751100;80;21629;-72
2022/11/17 20:51:56;;;;;;;10.60;5.12;;;;;;;-0.48;83.79;99161.23;1765678;80;21150;-71
2022/11/17 20:54:25;;;;;;;11.95;5.10;;;;;;;-0.50;83.44;99160.04;1773649;79;21562;-72
2022/11/17 20:56:54;;;;;;;9.13;4.70;;;;;;;-0.51;83.41;99165.08;1774698;78;21138;-73
2022/11/17 20:59:23;;;;;;;9.40;4.97;;;;;;;-0.54;83.29;99153.29;1761741;79;21560;-72
2022/11/17 21:01:52;;;;;;;9.05;4.90;;;;;;;-0.53;83.34;99158.17;1761516;79;21607;-70
2022/11/17 21:04:22;;;;;;;9.00;4.67;;;;;;;-0.53;83.31;99160.86;1757039;80;21161;-71
2022/11/17 21:06:52;;;;;;;7.95;4.67;;;;;;;-0.55;83.21;99165.05;1766625;79;21554;-71
2022/11/17 21:16:36;;;;;;;9.05;5.15;;;;;;;-0.51;82.84;99173.15;1848146;77;22100;-72
2022/11/17 21:19:08;;;;;;;9.60;4.67;;;;;;;-0.59;82.64;99175.78;1698426;83;21647;-72
2022/11/17 21:21:38;;;;;;;7.15;4.33;;;;;;;-0.65;82.46;99175.91;1721554;83;21215;-73
2022/11/17 21:24:08;;;;;;;9.83;4.95;;;;;;;-0.69;82.46;99177.69;1738691;82;21130;-75
2022/11/17 21:26:37;;;;;;;8.28;4.90;;;;;;;-0.70;82.69;99178.19;1721740;82;21134;-71
2022/11/17 21:29:06;;;;;;;8.55;5.08;;;;;;;-0.69;82.74;99179.88;1749314;82;21372;-73
2022/11/17 21:31:37;;;;;;;8.63;4.55;;;;;;;-0.69;82.65;99181.22;1751534;82;21142;-71
2022/11/17 21:34:15;;;;;;;9.95;4.72;;;;;;;-0.67;82.61;99181.91;1732205;82;21146;-71
2022/11/17 21:36:45;;;;;;;5.85;3.40;;;;;;;-0.66;82.62;99181.41;1742201;79;21090;-71
2022/11/17 21:39:16;;;;;;;8.68;4.22;;;;;;;-0.67;82.56;99187.29;1820741;78;21087;-72
2022/11/17 21:41:45;;;;;;;7.42;4.20;;;;;;;-0.68;82.53;99184.76;1753334;82;21162;-71
2022/11/17 21:44:14;;;;;;;7.47;4.00;;;;;;;-0.68;82.45;99190.14;1772021;81;21115;-71
2022/11/17 21:46:43;;;;;;;5.95;3.90;;;;;;;-0.69;82.40;99196.52;1750113;82;21130;-74
2022/11/17 21:49:13;;;;;;;6.92;4.45;;;;;;;-0.73;81.89;99200.52;1753997;82;21629;-71
2022/11/17 21:51:44;;;;;;;7.87;4.37;;;;;;;-0.78;81.80;99192.91;1661511;86;21578;-71
2022/11/17 21:54:13;;;;;;;6.92;4.10;;;;;;;-0.79;81.96;99197.95;1692813;85;21210;-71
2022/11/17 21:56:44;;;;;;;7.35;4.37;;;;;;;-0.77;81.74;99197.80;1692998;83;21197;-70
2022/11/17 21:59:15;;;;;;;7.50;3.98;;;;;;;-0.78;81.76;99209.05;1692750;83;21162;-73
2022/11/17 22:01:45;;;;;;;7.10;4.50;;;;;;;-0.78;81.79;99202.83;1705190;84;21162;-70
2022/11/17 22:04:14;;;;;;;7.10;4.10;;;;;;;-0.77;81.83;99216.11;1704978;84;21107;-70
2022/11/17 22:06:43;;;;;;;6.97;4.37;;;;;;;-0.74;81.75;99223.03;1704723;84;21146;-74
2022/11/17 22:09:14;;;;;;;6.08;3.90;;;;;;;-0.75;81.29;99214.61;1676929;82;21150;-72
2022/11/17 22:11:44;;;;;;;6.45;3.90;;;;;;;-0.79;81.05;99209.20;1721634;83;21123;-71
2022/11/17 22:14:18;;;;;;;8.60;4.15;;;;;;;-0.82;81.22;99218.42;1721600;83;21186;-71
2022/11/17 22:16:52;;;;;;;6.12;3.90;;;;;;;-0.81;81.21;99217.92;1721701;83;21158;-71
2022/11/17 22:19:25;;;;;;;6.92;4.40;;;;;;;-0.79;81.35;99205.17;1722070;83;21107;-72
2022/11/17 22:21:54;;;;;;;7.03;4.00;;;;;;;-0.79;81.10;99207.86;1720307;83;21145;-71
2022/11/17 22:24:24;;;;;;;6.33;3.90;;;;;;;-0.82;80.99;99207.67;1720032;83;21119;-71
2022/11/17 22:26:54;;;;;;;6.40;3.92;;;;;;;-0.82;80.98;99209.52;1739813;80;21161;-71
2022/11/17 22:29:23;;;;;;;7.50;3.85;;;;;;;-0.85;80.61;99203.95;1785784;80;21106;-73
2022/11/17 22:31:52;;;;;;;8.45;4.33;;;;;;;-0.86;80.72;99221.58;1783024;80;21099;-71
2022/11/17 22:34:22;;;;;;;6.92;3.95;;;;;;;-0.87;80.58;99206.44;1782991;80;21150;-70
2022/11/17 22:36:52;;;;;;;7.17;3.55;;;;;;;-0.89;80.54;99209.78;1782775;80;21115;-71
2022/11/17 22:39:21;;;;;;;7.15;4.15;;;;;;;-0.90;80.62;99213.47;1782850;80;21091;-70
2022/11/17 22:41:51;;;;;;;8.15;4.10;;;;;;;-0.87;80.67;99219.88;1778622;80;21099;-71
2022/11/17 22:44:21;;;;;;;8.35;4.20;;;;;;;-0.85;80.63;99215.20;1782628;80;21582;-71
2022/11/17 22:46:49;;;;;;;9.25;4.25;;;;;;;-0.86;80.25;99224.27;1782676;80;21111;-70
2022/11/17 22:49:19;;;;;;;7.80;4.10;;;;;;;-0.91;80.17;99212.62;1782993;80;21139;-72
2022/11/17 22:52:03;;;;;;;7.28;4.28;;;;;;;-0.88;80.04;99227.61;1782918;80;21551;-71
2022/11/17 22:54:35;;;;;;;13.37;4.17;;;;;;;-0.91;79.79;99230.10;1770195;80;21167;-71
2022/11/17 22:57:04;;;;;;;6.05;3.98;;;;;;;-0.91;79.75;99223.87;1751984;82;21867;-70
2022/11/17 22:59:34;;;;;;;7.58;3.77;;;;;;;-0.93;79.65;99225.38;1752396;80;21135;-72
2022/11/17 23:02:04;;;;;;;7.80;4.53;;;;;;;-0.93;79.56;99222.69;1715849;83;21114;-70
2022/11/17 23:04:34;;;;;;;6.90;4.20;;;;;;;-0.93;79.16;99224.53;1751957;80;21178;-72
2022/11/17 23:07:03;;;;;;;7.83;4.17;;;;;;;-0.95;78.69;99231.41;1715918;83;21584;-71
2022/11/17 23:09:34;;;;;;;6.83;3.87;;;;;;;-1.00;78.37;99237.73;1699603;84;21582;-71
2022/11/17 23:12:03;;;;;;;7.35;3.60;;;;;;;-1.00;78.12;99238.59;1699515;84;21135;-72
2022/11/17 23:14:32;;;;;;;8.65;3.90;;;;;;;-0.98;78.22;99229.88;1700153;83;21539;-72
2022/11/17 23:17:01;;;;;;;5.92;3.70;;;;;;;-0.99;77.81;99225.49;1717501;82;21166;-70
2022/11/17 23:19:30;;;;;;;7.40;3.90;;;;;;;-1.06;76.86;99219.04;1718423;83;21565;-72
2022/11/17 23:22:00;;;;;;;7.95;4.17;;;;;;;-1.15;77.04;99236.08;1718509;83;21130;-71
2022/11/17 23:24:29;;;;;;;6.70;4.22;;;;;;;-1.14;77.44;99231.55;1718164;83;21106;-73
2022/11/17 23:26:58;;;;;;;6.00;4.00;;;;;;;-1.12;77.27;99233.09;1730484;80;21125;-71
2022/11/17 23:29:28;;;;;;;8.63;4.35;;;;;;;-1.08;77.44;99230.44;1785279;79;21624;-73
2022/11/17 23:31:57;;;;;;;6.42;3.90;;;;;;;-1.01;77.63;99236.90;1785029;79;21611;-71
2022/11/17 23:34:27;;;;;;;6.50;3.75;;;;;;;-1.03;77.29;99236.70;1784993;80;21193;-71
2022/11/17 23:37:20;;;;;;;7.22;3.92;;;;;;;-1.07;77.41;99237.51;1784778;80;21178;-71
2022/11/17 23:39:51;;;;;;;5.55;3.55;;;;;;;-1.07;77.50;99244.72;1784940;80;21158;-71
2022/11/17 23:42:20;;;;;;;8.70;3.70;;;;;;;-1.06;77.63;99250.45;1785061;80;21123;-72
2022/11/17 23:44:50;;;;;;;10.63;4.87;;;;;;;-1.07;77.23;99248.26;1785021;80;21138;-69
2022/11/17 23:47:20;;;;;;;6.30;3.90;;;;;;;-1.12;77.17;99249.21;1784806;80;21154;-70
2022/11/17 23:49:50;;;;;;;6.10;3.85;;;;;;;-1.13;77.33;99250.70;1784988;80;21628;-71
2022/11/17 23:52:18;;;;;;;8.03;4.17;;;;;;;-1.12;77.31;99256.43;1784825;80;21170;-71
2022/11/17 23:54:47;;;;;;;5.45;3.58;;;;;;;-1.09;77.07;99251.59;1784905;80;21111;-72
2022/11/17 23:57:17;;;;;;;6.55;3.65;;;;;;;-1.09;76.79;99254.28;1784741;79;21549;-73
2022/11/17 23:59:47;;;;;;;6.58;4.00;;;;;;;-1.10;76.84;99258.47;1784903;80;21130;-71
